Time;durP1;ratioP1;P1;durP2;ratioP2;P2;SDS_P1;SDS_P2;PMS_P1;PMS_P2;Temp;Humidity;BMP_temperature;BMP_pressure;BME280_temperature;BME280_humidity;BME280_pressure;Samples;Min_cycle;Max_cycle;Signal;HPM_P1;HPM_P2
2022/09/13 00:01:36;;;;;;;3.78;2.40;;;;;;;;;;5018831;28;20057;-79
2022/09/13 00:04:22;;;;;;;3.22;1.90;;;;;;;;;;5014721;28;20029;-80
2022/09/13 00:07:08;;;;;;;8.18;2.22;;;;;;;;;;5018974;28;20014;-79
2022/09/13 00:09:53;;;;;;;2.55;1.88;;;;;;;;;;5022192;28;20030;-77
2022/09/13 00:12:39;;;;;;;5.38;1.85;;;;;;;;;;5019941;28;20041;-79
2022/09/13 00:15:24;;;;;;;2.85;1.95;;;;;;;;;;5025760;28;20021;-72
2022/09/13 00:18:10;;;;;;;3.42;2.00;;;;;;;;;;5015330;28;20075;-67
2022/09/13 00:21:06;;;;;;;4.80;1.92;;;;;;;;;;5020739;28;20419;-67
2022/09/13 00:23:52;;;;;;;2.75;1.70;;;;;;;;;;5027782;28;20477;-66
2022/09/13 00:26:38;;;;;;;3.10;1.98;;;;;;;;;;5026928;28;20436;-67
2022/09/13 00:29:23;;;;;;;2.83;1.80;;;;;;;;;;5026846;28;20033;-67
2022/09/13 00:32:09;;;;;;;2.67;2.10;;;;;;;;;;5026405;28;20411;-77
2022/09/13 00:34:54;;;;;;;2.83;1.92;;;;;;;;;;5030168;28;20021;-78
2022/09/13 00:37:40;;;;;;;5.70;2.00;;;;;;;;;;5030427;28;20488;-71
2022/09/13 00:40:26;;;;;;;1.95;1.75;;;;;;;;;;5025404;28;20165;-75
2022/09/13 00:43:15;;;;;;;4.65;2.40;;;;;;;;;;5025451;28;20037;-72
2022/09/13 00:46:01;;;;;;;;;;;;;;;;;;5022082;28;20060;-71
2022/09/13 00:48:48;;;;;;;6.75;2.20;;;;;;;;;;5026698;28;19968;-72
2022/09/13 00:51:34;;;;;;;2.25;1.73;;;;;;;;;;5023817;28;20037;-72
2022/09/13 00:54:22;;;;;;;5.57;2.20;;;;;;;;;;5025019;28;20025;-72
2022/09/13 00:57:08;;;;;;;3.10;1.70;;;;;;;;;;5019530;28;20030;-72
2022/09/13 00:59:57;;;;;;;3.78;2.22;;;;;;;;;;5021596;28;20068;-72
2022/09/13 01:02:45;;;;;;;3.15;1.98;;;;;;;;;;5022268;28;20095;-72
2022/09/13 01:05:37;;;;;;;4.85;2.03;;;;;;;;;;5018000;28;21461;-71
2022/09/13 01:08:22;;;;;;;4.15;2.05;;;;;;;;;;5023814;28;20445;-72
2022/09/13 01:11:10;;;;;;;4.40;2.13;;;;;;;;;;5006437;28;20528;-73
2022/09/13 01:13:57;;;;;;;1.75;1.45;;;;;;;;;;5018792;28;20401;-67
2022/09/13 01:16:42;;;;;;;4.60;1.73;;;;;;;;;;5026507;28;20030;-66
2022/09/13 01:19:28;;;;;;;4.65;2.22;;;;;;;;;;5028798;28;20034;-67
2022/09/13 01:22:16;;;;;;;4.35;2.10;;;;;;;;;;5030442;28;20055;-67
2022/09/13 01:25:11;;;;;;;3.95;1.70;;;;;;;;;;5016434;28;20052;-65
2022/09/13 01:28:19;;;;;;;2.55;1.73;;;;;;;;;;5017492;28;20071;-67
2022/09/13 01:31:08;;;;;;;2.47;1.50;;;;;;;;;;5024691;28;20025;-79
2022/09/13 01:34:14;;;;;;;4.60;1.75;;;;;;;;;;5025933;28;20217;-80
2022/09/13 01:36:59;;;;;;;3.28;1.90;;;;;;;;;;5024503;28;20480;-80
2022/09/13 01:40:01;;;;;;;2.50;2.00;;;;;;;;;;5026218;28;20558;-79
2022/09/13 01:42:52;;;;;;;3.10;1.75;;;;;;;;;;5022045;28;20109;-79
2022/09/13 01:45:45;;;;;;;3.63;1.60;;;;;;;;;;5023953;28;20373;-72
2022/09/13 01:48:49;;;;;;;4.22;1.55;;;;;;;;;;5024536;28;20048;-72
2022/09/13 01:51:54;;;;;;;3.13;2.00;;;;;;;;;;5009012;28;20033;-72
2022/09/13 01:54:40;;;;;;;2.05;1.83;;;;;;;;;;5020763;28;20030;-72
2022/09/13 01:57:28;;;;;;;4.22;2.00;;;;;;;;;;5025071;28;20030;-72
2022/09/13 02:00:15;;;;;;;2.17;1.92;;;;;;;;;;5023743;28;20075;-73
2022/09/13 02:03:04;;;;;;;5.30;2.05;;;;;;;;;;5020187;28;20429;-71
2022/09/13 02:05:55;;;;;;;3.97;1.67;;;;;;;;;;5021514;28;20025;-68
2022/09/13 02:08:44;;;;;;;4.15;1.92;;;;;;;;;;5026431;28;20047;-69
2022/09/13 02:11:31;;;;;;;5.70;1.63;;;;;;;;;;5018026;28;20041;-70
2022/09/13 02:14:21;;;;;;;4.10;1.63;;;;;;;;;;5024188;28;20041;-69
2022/09/13 02:17:12;;;;;;;2.25;1.40;;;;;;;;;;5023731;28;20481;-69
2022/09/13 02:20:04;;;;;;;3.10;1.35;;;;;;;;;;5019322;28;20057;-71
2022/09/13 02:22:53;;;;;;;4.38;1.80;;;;;;;;;;5019300;28;20041;-74
2022/09/13 02:25:39;;;;;;;1.40;1.30;;;;;;;;;;5020589;28;20025;-65
2022/09/13 02:28:31;;;;;;;1.75;1.40;;;;;;;;;;5016106;28;20466;-67
2022/09/13 02:31:18;;;;;;;2.00;1.65;;;;;;;;;;5019158;28;20064;-67
2022/09/13 02:34:11;;;;;;;4.85;1.70;;;;;;;;;;5013546;28;20116;-69
2022/09/13 02:36:57;;;;;;;2.10;1.48;;;;;;;;;;5016630;28;20040;-67
2022/09/13 02:39:46;;;;;;;4.65;1.85;;;;;;;;;;5021327;28;20022;-69
2022/09/13 02:42:31;;;;;;;3.45;1.50;;;;;;;;;;5023073;28;20452;-70
2022/09/13 02:45:20;;;;;;;5.68;1.65;;;;;;;;;;5020359;28;20091;-71
2022/09/13 02:48:11;;;;;;;4.85;1.85;;;;;;;;;;5026268;28;20036;-73
2022/09/13 02:50:56;;;;;;;1.45;1.30;;;;;;;;;;5019242;28;20028;-70
2022/09/13 02:53:47;;;;;;;3.03;1.70;;;;;;;;;;5027458;28;20029;-70
2022/09/13 02:56:38;;;;;;;4.78;1.77;;;;;;;;;;5018285;28;20057;-70
2022/09/13 02:59:24;;;;;;;5.78;1.85;;;;;;;;;;5023521;28;20033;-77
2022/09/13 03:02:13;;;;;;;3.15;2.17;;;;;;;;;;5027285;28;20055;-66
2022/09/13 03:04:59;;;;;;;2.30;1.60;;;;;;;;;;5023525;28;20061;-73
2022/09/13 03:07:45;;;;;;;1.90;1.63;;;;;;;;;;5024081;28;20104;-72
2022/09/13 03:10:39;;;;;;;2.03;1.65;;;;;;;;;;5022168;28;20503;-72
2022/09/13 03:13:33;;;;;;;2.58;1.85;;;;;;;;;;5029350;28;20229;-73
2022/09/13 03:16:22;;;;;;;1.75;1.65;;;;;;;;;;5013047;28;20018;-73
2022/09/13 03:19:07;;;;;;;3.78;1.77;;;;;;;;;;5026914;28;20040;-78
2022/09/13 03:21:59;;;;;;;2.55;1.90;;;;;;;;;;5026506;28;20433;-74
2022/09/13 03:24:44;;;;;;;4.75;2.15;;;;;;;;;;5020439;28;20021;-76
2022/09/13 03:27:33;;;;;;;3.05;1.88;;;;;;;;;;5019566;28;20030;-74
2022/09/13 03:30:18;;;;;;;3.28;1.95;;;;;;;;;;5017723;28;20021;-74
2022/09/13 03:33:23;;;;;;;4.63;2.15;;;;;;;;;;5019236;28;20044;-73
2022/09/13 03:36:15;;;;;;;2.05;1.40;;;;;;;;;;5014934;28;20052;-66
2022/09/13 03:39:21;;;;;;;2.95;2.05;;;;;;;;;;5025626;28;20067;-74
2022/09/13 03:42:15;;;;;;;4.15;2.13;;;;;;;;;;5022500;28;20477;-66
2022/09/13 03:45:02;;;;;;;4.63;2.03;;;;;;;;;;5019742;28;20491;-66
2022/09/13 03:47:49;;;;;;;4.45;1.98;;;;;;;;;;5021921;28;20068;-67
2022/09/13 03:50:35;;;;;;;3.33;1.77;;;;;;;;;;5022809;28;20028;-67
2022/09/13 03:53:22;;;;;;;2.90;1.98;;;;;;;;;;5020036;28;20085;-67
2022/09/13 03:56:15;;;;;;;4.10;1.92;;;;;;;;;;5022943;28;20030;-79
2022/09/13 03:59:01;;;;;;;2.75;1.83;;;;;;;;;;5025500;28;20665;-69
2022/09/13 04:01:47;;;;;;;4.75;2.25;;;;;;;;;;5030544;28;20083;-69
2022/09/13 04:04:33;;;;;;;4.45;2.20;;;;;;;;;;5026025;28;20021;-69
2022/09/13 04:07:22;;;;;;;2.58;1.85;;;;;;;;;;5030631;28;20017;-69
2022/09/13 04:10:08;;;;;;;6.15;2.05;;;;;;;;;;5011410;28;20116;-70
2022/09/13 04:12:54;;;;;;;5.68;2.63;;;;;;;;;;5033860;28;20045;-71
2022/09/13 04:15:40;;;;;;;3.83;2.20;;;;;;;;;;5026532;28;20025;-67
2022/09/13 04:18:25;;;;;;;2.88;2.03;;;;;;;;;;5022879;28;20037;-72
2022/09/13 04:21:11;;;;;;;5.63;1.92;;;;;;;;;;5006122;28;20446;-73
2022/09/13 04:23:58;;;;;;;3.88;2.30;;;;;;;;;;5024943;28;20077;-73
2022/09/13 04:26:44;;;;;;;4.15;2.22;;;;;;;;;;5025084;28;20030;-72
2022/09/13 04:29:31;;;;;;;3.20;1.92;;;;;;;;;;5022876;28;20014;-72
2022/09/13 04:32:16;;;;;;;4.03;2.38;;;;;;;;;;5021146;28;20061;-76
2022/09/13 04:35:02;;;;;;;4.07;2.30;;;;;;;;;;5033699;28;20483;-67
2022/09/13 04:37:48;;;;;;;3.80;2.38;;;;;;;;;;5032219;28;20032;-67
2022/09/13 04:40:34;;;;;;;6.70;2.40;;;;;;;;;;5019526;28;20025;-67
2022/09/13 04:43:20;;;;;;;5.13;2.05;;;;;;;;;;5020773;28;20443;-66
2022/09/13 04:46:05;;;;;;;5.97;1.88;;;;;;;;;;5024309;28;20108;-67
2022/09/13 04:48:51;;;;;;;2.80;1.85;;;;;;;;;;5016822;28;20546;-67
2022/09/13 04:51:36;;;;;;;4.07;2.03;;;;;;;;;;5003455;28;20029;-72
2022/09/13 04:54:22;;;;;;;7.10;2.58;;;;;;;;;;5027514;28;20026;-79
2022/09/13 04:57:07;;;;;;;4.10;2.42;;;;;;;;;;5017010;28;20132;-78
2022/09/13 04:59:53;;;;;;;5.72;3.03;;;;;;;;;;5012871;28;20076;-78
2022/09/13 05:02:39;;;;;;;6.43;2.85;;;;;;;;;;5024723;28;20032;-79
2022/09/13 05:05:24;;;;;;;4.57;2.80;;;;;;;;;;5002516;28;20049;-80
2022/09/13 05:08:10;;;;;;;7.05;3.20;;;;;;;;;;5021814;28;20248;-66
2022/09/13 05:10:55;;;;;;;5.82;3.05;;;;;;;;;;5027117;28;20032;-74
2022/09/13 05:13:41;;;;;;;4.00;2.58;;;;;;;;;;5027789;28;20076;-67
2022/09/13 05:16:28;;;;;;;4.60;2.80;;;;;;;;;;5022352;28;20065;-68
2022/09/13 05:19:13;;;;;;;3.40;2.47;;;;;;;;;;5030332;28;20150;-68
2022/09/13 05:21:59;;;;;;;5.22;2.80;;;;;;;;;;5025789;28;20024;-67
2022/09/13 05:24:45;;;;;;;6.43;2.80;;;;;;;;;;5026096;28;20483;-68
2022/09/13 05:27:30;;;;;;;4.20;2.60;;;;;;;;;;5019200;28;20038;-80
2022/09/13 05:30:16;;;;;;;5.18;2.78;;;;;;;;;;5011894;28;20029;-79
2022/09/13 05:33:03;;;;;;;4.75;2.75;;;;;;;;;;5014721;28;20064;-79
2022/09/13 05:35:49;;;;;;;3.58;2.53;;;;;;;;;;5026524;28;20481;-79
2022/09/13 05:38:34;;;;;;;3.33;2.38;;;;;;;;;;5024205;28;20582;-81
2022/09/13 05:41:20;;;;;;;5.60;2.63;;;;;;;;;;5022757;28;20507;-79
2022/09/13 05:44:06;;;;;;;5.32;2.80;;;;;;;;;;5013294;28;20064;-80
2022/09/13 05:46:52;;;;;;;6.28;3.20;;;;;;;;;;5014614;28;20025;-78
2022/09/13 05:49:37;;;;;;;4.20;2.92;;;;;;;;;;5009045;28;20030;-71
2022/09/13 05:52:23;;;;;;;5.30;2.88;;;;;;;;;;5018372;28;20263;-70
2022/09/13 05:55:09;;;;;;;3.95;2.40;;;;;;;;;;5018685;28;20104;-71
2022/09/13 05:57:55;;;;;;;5.47;3.25;;;;;;;;;;5026480;28;20033;-71
2022/09/13 06:00:40;;;;;;;5.15;2.70;;;;;;;;;;5021157;28;20512;-73
2022/09/13 06:03:26;;;;;;;8.48;3.42;;;;;;;;;;5027196;28;20025;-71
2022/09/13 06:06:12;;;;;;;6.18;2.65;;;;;;;;;;5012393;28;20034;-70
2022/09/13 06:08:57;;;;;;;8.00;3.47;;;;;;;;;;5024984;28;20406;-72
2022/09/13 06:11:43;;;;;;;10.35;3.15;;;;;;;;;;5019621;28;20040;-74
2022/09/13 06:14:28;;;;;;;6.57;3.40;;;;;;;;;;5019747;28;20131;-76
2022/09/13 06:17:14;;;;;;;7.30;3.20;;;;;;;;;;5013750;28;20489;-77
2022/09/13 06:19:59;;;;;;;5.88;2.92;;;;;;;;;;5022942;28;20025;-75
2022/09/13 06:22:46;;;;;;;5.88;3.58;;;;;;;;;;5019706;28;20033;-74
2022/09/13 06:25:32;;;;;;;6.47;3.05;;;;;;;;;;5015490;28;20029;-79
2022/09/13 06:28:17;;;;;;;5.53;3.08;;;;;;;;;;5020740;28;20113;-78
2022/09/13 06:31:06;;;;;;;6.32;2.75;;;;;;;;;;5020558;28;20021;-79
2022/09/13 06:33:56;;;;;;;6.60;2.90;;;;;;;;;;5020382;28;20420;-78
2022/09/13 06:36:42;;;;;;;9.25;3.88;;;;;;;;;;5019984;28;20052;-79
2022/09/13 06:39:28;;;;;;;7.18;3.22;;;;;;;;;;5011281;28;20025;-81
2022/09/13 06:42:13;;;;;;;5.00;2.70;;;;;;;;;;4999085;28;20032;-71
2022/09/13 06:44:59;;;;;;;11.60;4.10;;;;;;;;;;5013887;28;20021;-74
2022/09/13 06:47:44;;;;;;;16.17;4.40;;;;;;;;;;5015528;28;20370;-73
2022/09/13 06:50:30;;;;;;;11.43;3.80;;;;;;;;;;5008906;28;20370;-72
2022/09/13 06:53:15;;;;;;;17.27;4.45;;;;;;;;;;5016360;28;20038;-72
2022/09/13 06:56:06;;;;;;;11.27;3.47;;;;;;;;;;5019083;28;20049;-72
2022/09/13 06:58:54;;;;;;;10.82;3.03;;;;;;;;;;5015583;28;20029;-75
2022/09/13 07:01:42;;;;;;;7.75;2.78;;;;;;;;;;5018388;28;20021;-74
2022/09/13 07:04:30;;;;;;;5.22;2.55;;;;;;;;;;5015642;28;20098;-72
2022/09/13 07:07:16;;;;;;;6.18;2.63;;;;;;;;;;5015884;28;20029;-70
2022/09/13 07:10:01;;;;;;;6.40;2.50;;;;;;;;;;5012216;28;20022;-72
2022/09/13 07:12:47;;;;;;;5.13;3.13;;;;;;;;;;5015246;28;20551;-72
2022/09/13 07:15:35;;;;;;;4.68;2.70;;;;;;;;;;5012998;28;20025;-75
2022/09/13 07:18:20;;;;;;;3.22;2.25;;;;;;;;;;5021302;28;20044;-74
2022/09/13 07:21:07;;;;;;;7.38;2.42;;;;;;;;;;5021405;28;20017;-74
2022/09/13 07:23:54;;;;;;;7.72;3.90;;;;;;;;;;5015931;28;20063;-75
2022/09/13 07:26:39;;;;;;;6.35;2.97;;;;;;;;;;5012303;28;20085;-75
2022/09/13 07:29:25;;;;;;;6.43;2.25;;;;;;;;;;5020398;28;20547;-74
2022/09/13 07:32:10;;;;;;;5.70;2.90;;;;;;;;;;5015163;28;20041;-74
2022/09/13 07:34:56;;;;;;;3.50;2.45;;;;;;;;;;5017791;28;20049;-75
2022/09/13 07:37:44;;;;;;;3.05;2.20;;;;;;;;;;5021337;28;20057;-79
2022/09/13 07:40:29;;;;;;;5.65;2.75;;;;;;;;;;5031321;28;20023;-75
2022/09/13 07:43:15;;;;;;;7.82;3.42;;;;;;;;;;5010763;28;20029;-75
2022/09/13 07:46:02;;;;;;;4.15;2.38;;;;;;;;;;5029211;28;20018;-76
2022/09/13 07:48:48;;;;;;;9.10;2.70;;;;;;;;;;5027805;28;20065;-75
2022/09/13 07:51:35;;;;;;;6.70;2.30;;;;;;;;;;5031132;28;20037;-75
2022/09/13 07:54:20;;;;;;;4.78;2.00;;;;;;;;;;5020211;28;20036;-73
2022/09/13 07:57:06;;;;;;;6.93;2.05;;;;;;;;;;5024796;28;20029;-82
2022/09/13 07:59:51;;;;;;;5.80;2.25;;;;;;;;;;5026556;28;20385;-79
2022/09/13 08:02:37;;;;;;;7.53;2.28;;;;;;;;;;5012658;28;20037;-78
2022/09/13 08:05:22;;;;;;;4.28;2.63;;;;;;;;;;5016761;28;20029;-79
2022/09/13 08:08:08;;;;;;;5.72;1.80;;;;;;;;;;5013613;28;20037;-80
2022/09/13 08:10:54;;;;;;;3.00;2.13;;;;;;;;;;5002522;28;20120;-79
2022/09/13 08:13:39;;;;;;;6.05;2.10;;;;;;;;;;5005358;28;20041;-70
2022/09/13 08:16:26;;;;;;;6.18;1.98;;;;;;;;;;5025290;28;20067;-73
2022/09/13 08:19:12;;;;;;;5.70;2.00;;;;;;;;;;5017200;28;20485;-75
2022/09/13 08:21:59;;;;;;;5.47;2.17;;;;;;;;;;5008346;28;20025;-75
2022/09/13 08:24:45;;;;;;;4.45;2.00;;;;;;;;;;5019897;28;20061;-75
2022/09/13 08:27:30;;;;;;;4.65;2.20;;;;;;;;;;5020501;28;20030;-75
2022/09/13 08:30:16;;;;;;;5.43;2.53;;;;;;;;;;5012578;28;20048;-73
2022/09/13 08:33:05;;;;;;;4.50;1.83;;;;;;;;;;5022076;28;20048;-72
2022/09/13 08:35:51;;;;;;;4.43;1.60;;;;;;;;;;5011801;28;20027;-74
2022/09/13 08:38:37;;;;;;;3.67;1.90;;;;;;;;;;5009862;28;20034;-73
2022/09/13 08:41:32;;;;;;;4.72;1.75;;;;;;;;;;5021060;28;20037;-72
2022/09/13 08:44:25;;;;;;;3.88;2.00;;;;;;;;;;5019252;28;20377;-75
2022/09/13 08:47:10;;;;;;;6.97;1.83;;;;;;;;;;5020383;28;20030;-74
2022/09/13 08:50:00;;;;;;;6.88;1.80;;;;;;;;;;5016323;28;20071;-71
2022/09/13 08:53:04;;;;;;;4.55;1.85;;;;;;;;;;5020127;28;20080;-74
2022/09/13 08:55:56;;;;;;;1.95;1.65;;;;;;;;;;5013081;28;20048;-75
2022/09/13 08:59:01;;;;;;;4.63;1.85;;;;;;;;;;5023567;28;20021;-73
2022/09/13 09:02:04;;;;;;;5.15;1.85;;;;;;;;;;5018811;28;20164;-75
2022/09/13 09:04:53;;;;;;;3.05;1.70;;;;;;;;;;5024062;28;20056;-75
2022/09/13 09:07:44;;;;;;;6.28;2.03;;;;;;;;;;5019945;28;20104;-74
2022/09/13 09:10:32;;;;;;;4.10;1.80;;;;;;;;;;5023560;28;20025;-75
2022/09/13 09:13:26;;;;;;;5.30;1.67;;;;;;;;;;5019004;28;20048;-73
2022/09/13 09:16:14;;;;;;;3.15;1.70;;;;;;;;;;5023647;28;20030;-72
2022/09/13 09:19:08;;;;;;;4.78;1.85;;;;;;;;;;5012690;28;20026;-72
2022/09/13 09:21:54;;;;;;;2.60;1.48;;;;;;;;;;5003784;28;20025;-74
2022/09/13 09:24:43;;;;;;;4.00;1.70;;;;;;;;;;5005010;28;20052;-73
2022/09/13 09:27:28;;;;;;;;;;;;;;;;;;5026402;28;20027;-71
2022/09/13 09:30:14;;;;;;;3.10;1.90;;;;;;;;;;5019991;28;19909;-79
2022/09/13 09:33:03;;;;;;;4.65;1.40;;;;;;;;;;5016831;28;20034;-79
2022/09/13 09:35:48;;;;;;;2.88;1.70;;;;;;;;;;5017347;28;20469;-80
2022/09/13 09:38:42;;;;;;;1.90;1.38;;;;;;;;;;5018125;28;20124;-79
2022/09/13 09:41:31;;;;;;;5.88;1.55;;;;;;;;;;5012638;28;20029;-81
2022/09/13 09:44:19;;;;;;;4.47;1.55;;;;;;;;;;5024656;28;20056;-73
2022/09/13 09:47:23;;;;;;;6.05;1.98;;;;;;;;;;5026446;28;20025;-72
2022/09/13 09:50:11;;;;;;;6.05;1.88;;;;;;;;;;5018497;28;20329;-83
2022/09/13 09:53:07;;;;;;;6.23;2.43;;;;;;;;;;5020096;28;20050;-83
2022/09/13 09:56:11;;;;;;;7.95;2.15;;;;;;;;;;5013395;28;20026;-83
2022/09/13 09:58:56;;;;;;;4.40;1.95;;;;;;;;;;5015821;28;20153;-83
2022/09/13 10:01:45;;;;;;;4.75;1.83;;;;;;;;;;5015844;28;20040;-82
2022/09/13 10:04:31;;;;;;;2.88;1.63;;;;;;;;;;5017265;28;20021;-74
2022/09/13 10:07:24;;;;;;;4.90;2.10;;;;;;;;;;5007781;28;20056;-81
2022/09/13 10:10:20;;;;;;;4.30;1.83;;;;;;;;;;5016192;28;20037;-78
2022/09/13 10:13:06;;;;;;;19.15;5.70;;;;;;;;;;5013691;28;20116;-65
2022/09/13 10:16:02;;;;;;;9.93;5.38;;;;;;;;;;5024643;28;20025;-64
2022/09/13 10:18:48;;;;;;;13.20;5.80;;;;;;;;;;5018782;28;20112;-68
2022/09/13 10:21:34;;;;;;;14.15;6.07;;;;;;;;;;5012579;28;20112;-71
2022/09/13 10:24:20;;;;;;;12.25;4.18;;;;;;;;;;5003229;28;20512;-69
2022/09/13 10:27:18;;;;;;;10.57;5.10;;;;;;;;;;5021844;28;20037;-66
2022/09/13 10:30:04;;;;;;;;;;;;;;;;;;5016600;28;20033;-67
2022/09/13 10:32:56;;;;;;;9.88;4.32;;;;;;;;;;5018676;28;19917;-65
2022/09/13 10:35:46;;;;;;;10.73;3.67;;;;;;;;;;5017005;28;20028;-66
2022/09/13 10:38:35;;;;;;;11.18;3.42;;;;;;;;;;5019619;28;20047;-67
2022/09/13 10:41:23;;;;;;;6.82;3.03;;;;;;;;;;5020676;28;20515;-70
2022/09/13 10:44:22;;;;;;;7.00;3.03;;;;;;;;;;5024261;28;20036;-67
2022/09/13 10:47:37;;;;;;;7.43;3.05;;;;;;;;;;5022654;28;20030;-68
2022/09/13 10:50:24;;;;;;;6.65;2.55;;;;;;;;;;5011099;28;20033;-67
2022/09/13 10:53:29;;;;;;;4.38;2.25;;;;;;;;;;5019023;28;20040;-68
2022/09/13 10:56:21;;;;;;;4.18;1.85;;;;;;;;;;5016796;28;20370;-68
2022/09/13 10:59:20;;;;;;;4.18;2.30;;;;;;;;;;5010108;28;20093;-68
2022/09/13 11:02:15;;;;;;;3.75;1.73;;;;;;;;;;5020266;28;20026;-66
2022/09/13 11:05:15;;;;;;;6.38;2.08;;;;;;;;;;5012857;28;20034;-67
2022/09/13 11:08:11;;;;;;;5.32;1.63;;;;;;;;;;5013040;28;20144;-69
2022/09/13 11:11:20;;;;;;;3.90;1.85;;;;;;;;;;5011980;28;20108;-64
2022/09/13 11:14:06;;;;;;;5.38;1.95;;;;;;;;;;5017224;28;20029;-65
2022/09/13 11:17:03;;;;;;;3.95;1.92;;;;;;;;;;5020470;28;20042;-68
2022/09/13 11:20:03;;;;;;;4.97;2.28;;;;;;;;;;5014645;28;20045;-68
2022/09/13 11:23:07;;;;;;;6.50;2.58;;;;;;;;;;5014705;28;20079;-68
2022/09/13 11:26:01;;;;;;;4.10;1.60;;;;;;;;;;5015202;28;20091;-69
2022/09/13 11:28:55;;;;;;;3.33;1.35;;;;;;;;;;5014233;28;20123;-67
2022/09/13 11:31:40;;;;;;;5.28;1.67;;;;;;;;;;5019570;28;20449;-68
2022/09/13 11:34:27;;;;;;;2.28;1.25;;;;;;;;;;5025862;28;20020;-67
2022/09/13 11:37:28;;;;;;;2.58;1.50;;;;;;;;;;5019395;28;20396;-73
2022/09/13 11:40:32;;;;;;;2.55;1.40;;;;;;;;;;5004052;28;20029;-68
2022/09/13 11:43:32;;;;;;;3.65;1.45;;;;;;;;;;5016694;28;20489;-68
2022/09/13 11:46:21;;;;;;;3.90;1.77;;;;;;;;;;5015978;28;20376;-67
2022/09/13 11:49:25;;;;;;;2.22;1.35;;;;;;;;;;5023906;28;20018;-68
2022/09/13 11:52:10;;;;;;;2.47;1.48;;;;;;;;;;5012461;28;20386;-68
2022/09/13 11:55:17;;;;;;;2.95;1.50;;;;;;;;;;5018209;28;20033;-75
2022/09/13 11:58:04;;;;;;;1.60;1.10;;;;;;;;;;5017845;28;20025;-67
2022/09/13 12:00:52;;;;;;;3.10;1.30;;;;;;;;;;5017164;28;20064;-69
2022/09/13 12:03:44;;;;;;;2.03;1.20;;;;;;;;;;5017203;28;20075;-66
2022/09/13 12:07:08;;;;;;;2.97;1.42;;;;;;;;;;5024006;28;20029;-67
2022/09/13 12:09:59;;;;;;;2.35;1.27;;;;;;;;;;4950250;28;20398;-68
2022/09/13 12:12:48;;;;;;;3.60;1.55;;;;;;;;;;4944892;28;20183;-69
2022/09/13 12:15:36;;;;;;;2.83;1.55;;;;;;;;;;4947503;28;20380;-65
2022/09/13 12:18:45;;;;;;;3.42;1.20;;;;;;;;;;4949245;28;20031;-66
2022/09/13 12:21:34;;;;;;;2.38;1.30;;;;;;;;;;4951822;28;20503;-67
2022/09/13 12:24:34;;;;;;;3.75;1.65;;;;;;;;;;4952162;28;20106;-67
2022/09/13 12:27:20;;;;;;;2.08;1.40;;;;;;;;;;4952340;28;20400;-67
2022/09/13 12:30:13;;;;;;;3.35;1.60;;;;;;;;;;4948112;28;20024;-66
2022/09/13 12:32:58;;;;;;;1.92;1.40;;;;;;;;;;4951712;28;20078;-65
2022/09/13 12:35:58;;;;;;;2.22;1.40;;;;;;;;;;4950490;28;20029;-67
2022/09/13 12:38:43;;;;;;;2.38;1.65;;;;;;;;;;4945550;28;20129;-66
2022/09/13 12:41:48;;;;;;;3.70;1.27;;;;;;;;;;5017435;28;20029;-67
2022/09/13 12:44:42;;;;;;;1.10;1.00;;;;;;;;;;5027042;28;20074;-68
2022/09/13 12:47:28;;;;;;;1.20;1.10;;;;;;;;;;5022934;28;20507;-66
2022/09/13 12:50:22;;;;;;;3.85;1.45;;;;;;;;;;5022511;28;20201;-71
2022/09/13 12:53:34;;;;;;;2.00;1.40;;;;;;;;;;5015660;28;20048;-74
2022/09/13 12:56:38;;;;;;;1.35;1.10;;;;;;;;;;5026420;28;20521;-74
2022/09/13 12:59:24;;;;;;;1.33;1.20;;;;;;;;;;5021121;28;20017;-72
2022/09/13 13:02:23;;;;;;;1.95;1.10;;;;;;;;;;5021533;28;20108;-73
2022/09/13 13:05:27;;;;;;;2.13;1.17;;;;;;;;;;5001381;28;20034;-74
2022/09/13 13:08:15;;;;;;;3.95;1.23;;;;;;;;;;5019478;28;20442;-74
2022/09/13 13:11:02;;;;;;;1.67;1.20;;;;;;;;;;5017462;28;20256;-66
2022/09/13 13:13:55;;;;;;;2.45;1.20;;;;;;;;;;5020440;28;20028;-67
2022/09/13 13:16:44;;;;;;;4.47;1.42;;;;;;;;;;5021470;28;20165;-66
2022/09/13 13:19:30;;;;;;;2.40;1.05;;;;;;;;;;5022700;28;20419;-66
2022/09/13 13:22:34;;;;;;;1.52;1.20;;;;;;;;;;5025097;28;20026;-66
2022/09/13 13:25:31;;;;;;;2.00;1.20;;;;;;;;;;5020272;28;20378;-65
2022/09/13 13:28:35;;;;;;;3.15;1.02;;;;;;;;;;5019089;28;20030;-68
2022/09/13 13:31:20;;;;;;;1.65;1.30;;;;;;;;;;5019320;28;20480;-76
2022/09/13 13:34:09;;;;;;;3.80;1.25;;;;;;;;;;5019547;28;20037;-72
2022/09/13 13:36:57;;;;;;;2.03;1.00;;;;;;;;;;5008550;28;20021;-73
2022/09/13 13:39:46;;;;;;;1.85;1.05;;;;;;;;;;5027856;28;20065;-72
2022/09/13 13:42:37;;;;;;;0.90;0.90;;;;;;;;;;5015391;28;20051;-74
2022/09/13 13:45:26;;;;;;;1.10;1.00;;;;;;;;;;5014919;28;20030;-68
2022/09/13 13:48:14;;;;;;;1.85;1.20;;;;;;;;;;5023928;28;20018;-76
2022/09/13 13:51:20;;;;;;;3.47;1.45;;;;;;;;;;5009510;28;20045;-73
2022/09/13 13:54:25;;;;;;;2.00;1.00;;;;;;;;;;5017895;28;20077;-74
2022/09/13 13:57:30;;;;;;;1.20;1.10;;;;;;;;;;5021754;28;20026;-74
2022/09/13 14:00:20;;;;;;;2.00;0.90;;;;;;;;;;5015131;28;20029;-75
2022/09/13 14:03:22;;;;;;;0.70;0.70;;;;;;;;;;5021069;28;20021;-68
2022/09/13 14:06:26;;;;;;;2.60;0.98;;;;;;;;;;5015720;28;20030;-67
2022/09/13 14:09:25;;;;;;;1.42;0.80;;;;;;;;;;5018332;28;20031;-66
2022/09/13 14:12:16;;;;;;;2.75;0.90;;;;;;;;;;5017085;28;20563;-66
2022/09/13 14:15:09;;;;;;;1.17;1.08;;;;;;;;;;5016315;28;20754;-68
2022/09/13 14:17:54;;;;;;;2.50;1.00;;;;;;;;;;5018017;28;20053;-67
2022/09/13 14:20:55;;;;;;;2.05;1.10;;;;;;;;;;5014885;28;20112;-65
2022/09/13 14:23:41;;;;;;;2.15;0.88;;;;;;;;;;5012216;28;20209;-65
2022/09/13 14:26:27;;;;;;;1.90;1.20;;;;;;;;;;5015442;28;20032;-67
2022/09/13 14:29:15;;;;;;;1.92;1.17;;;;;;;;;;5020551;28;20332;-67
2022/09/13 14:32:03;;;;;;;0.98;0.77;;;;;;;;;;5013073;28;20108;-67
2022/09/13 14:34:52;;;;;;;2.33;0.88;;;;;;;;;;5012433;28;20100;-67
2022/09/13 14:37:39;;;;;;;0.82;0.80;;;;;;;;;;5019735;28;20033;-69
2022/09/13 14:40:26;;;;;;;1.80;1.00;;;;;;;;;;5009335;28;20048;-69
2022/09/13 14:43:16;;;;;;;1.40;0.80;;;;;;;;;;5014986;28;20029;-74
2022/09/13 14:46:04;;;;;;;1.00;0.75;;;;;;;;;;5019334;28;20029;-74
2022/09/13 14:48:52;;;;;;;3.28;1.23;;;;;;;;;;5001651;28;20116;-73
2022/09/13 14:51:38;;;;;;;0.77;0.70;;;;;;;;;;5015457;28;20043;-73
2022/09/13 14:54:26;;;;;;;0.88;0.80;;;;;;;;;;5027094;28;20349;-75
2022/09/13 14:57:27;;;;;;;3.47;1.17;;;;;;;;;;5017859;28;20029;-67
2022/09/13 15:00:13;;;;;;;0.60;0.60;;;;;;;;;;5022736;28;20029;-68
2022/09/13 15:03:01;;;;;;;4.20;0.70;;;;;;;;;;5013364;28;20080;-69
2022/09/13 15:05:56;;;;;;;2.10;0.90;;;;;;;;;;5021877;28;20064;-73
2022/09/13 15:08:43;;;;;;;3.72;1.00;;;;;;;;;;5005233;28;20260;-71
2022/09/13 15:11:31;;;;;;;8.80;1.00;;;;;;;;;;5020600;28;20108;-70
2022/09/13 15:14:38;;;;;;;152.15;36.10;;;;;;;;;;5014263;28;20497;-73
2022/09/13 15:17:23;;;;;;;144.88;34.28;;;;;;;;;;5008652;28;20053;-70
2022/09/13 15:20:11;;;;;;;99.32;27.73;;;;;;;;;;5018735;28;20127;-71
2022/09/13 15:22:57;;;;;;;47.22;13.25;;;;;;;;;;5022667;28;20534;-72
2022/09/13 15:25:46;;;;;;;53.92;12.52;;;;;;;;;;5011259;28;20470;-77
2022/09/13 15:28:35;;;;;;;24.80;8.40;;;;;;;;;;5018903;28;20021;-73
2022/09/13 15:31:22;;;;;;;24.33;8.20;;;;;;;;;;5019882;28;20038;-74
2022/09/13 15:34:19;;;;;;;17.25;5.15;;;;;;;;;;5013354;28;20062;-69
2022/09/13 15:37:04;;;;;;;13.68;4.18;;;;;;;;;;5011217;28;20035;-66
2022/09/13 15:40:01;;;;;;;13.45;3.58;;;;;;;;;;5024531;28;20022;-74
2022/09/13 15:42:48;;;;;;;9.02;3.05;;;;;;;;;;5024734;28;20095;-73
2022/09/13 15:45:33;;;;;;;6.63;2.35;;;;;;;;;;5020034;28;20029;-74
2022/09/13 15:48:25;;;;;;;7.18;2.90;;;;;;;;;;5022553;28;20038;-73
2022/09/13 15:51:12;;;;;;;11.40;3.67;;;;;;;;;;5026114;28;20021;-73
2022/09/13 15:53:58;;;;;;;9.48;6.28;;;;;;;;;;5026158;28;20030;-65
2022/09/13 15:56:47;;;;;;;10.80;7.75;;;;;;;;;;5019202;28;20096;-67
2022/09/13 15:59:32;;;;;;;12.82;9.05;;;;;;;;;;5008777;28;20057;-67
2022/09/13 16:02:22;;;;;;;12.70;10.15;;;;;;;;;;5031454;28;20435;-66
2022/09/13 16:05:09;;;;;;;13.35;8.98;;;;;;;;;;5021638;28;20022;-66
2022/09/13 16:07:57;;;;;;;13.52;7.53;;;;;;;;;;5021376;28;20062;-66
2022/09/13 16:10:43;;;;;;;11.15;6.47;;;;;;;;;;5028247;28;20021;-69
2022/09/13 16:13:28;;;;;;;9.57;6.20;;;;;;;;;;5028362;28;20098;-66
2022/09/13 16:16:14;;;;;;;9.05;5.95;;;;;;;;;;5006069;28;20034;-68
2022/09/13 16:18:59;;;;;;;6.57;3.97;;;;;;;;;;5023368;28;20042;-67
2022/09/13 16:21:46;;;;;;;7.13;4.00;;;;;;;;;;5025845;28;20104;-70
2022/09/13 16:24:31;;;;;;;6.55;3.60;;;;;;;;;;5032626;28;20072;-68
2022/09/13 16:27:18;;;;;;;6.22;3.72;;;;;;;;;;5006019;28;20485;-69
2022/09/13 16:30:04;;;;;;;8.18;3.45;;;;;;;;;;5018966;28;20022;-63
2022/09/13 16:32:49;;;;;;;5.25;2.60;;;;;;;;;;5030695;28;20041;-65
2022/09/13 16:35:35;;;;;;;4.68;2.58;;;;;;;;;;5018759;28;20141;-67
2022/09/13 16:38:21;;;;;;;3.75;2.17;;;;;;;;;;5028091;28;20022;-66
2022/09/13 16:41:07;;;;;;;2.97;2.35;;;;;;;;;;5011207;28;20033;-66
2022/09/13 16:43:55;;;;;;;4.80;2.03;;;;;;;;;;5015817;28;20044;-66
2022/09/13 16:46:41;;;;;;;3.78;2.15;;;;;;;;;;5022284;28;20033;-68
2022/09/13 16:49:27;;;;;;;5.15;2.17;;;;;;;;;;5022990;28;20116;-71
2022/09/13 16:52:12;;;;;;;3.85;2.47;;;;;;;;;;5020812;28;20116;-67
2022/09/13 16:54:58;;;;;;;3.03;1.90;;;;;;;;;;5027854;28;20057;-69
2022/09/13 16:57:47;;;;;;;3.88;1.90;;;;;;;;;;5016948;28;20092;-68